Change the Weather History Date:

Wednesday, March 13, 2013

  Actual Average Record
Temperature  
Mean Temperature 48 °F -  
Max Temperature 59 °F - 88 °F (1967)
Min Temperature 37 °F - 21 °F (1969)
Degree Days  
Heating Degree Days 17    
Month to date heating degree days 219  
Since 1 July heating degree days 1703  
Cooling Degree Days 0    
Month to date cooling degree days 0  
Year to date cooling degree days 11  
Moisture  
Dew Point 24 °F    
Average Humidity 42    
Maximum Humidity 75    
Minimum Humidity 20    
Precipitation  
Precipitation 0.00 in - 1.78 in (1997)
Month to date precipitation 1.34  
Year to date precipitation 14.72  
Sea Level Pressure  
Sea Level Pressure 30.19 in    
Wind  
Wind Speed 10 mph (NW)    
Max Wind Speed 18 mph    
Max Gust Speed 30 mph    
Visibility 10 miles    
Events      
T = Trace of Precipitation, MM = Missing Value Source: NWS Daily Summary

Daily Weather History Graph

Daily Weather History Graph

Search for Another Location

Airport or City:

Trip Planner

Search our weather history database for the weather conditions in past years. The results will help you decide how hot, cold, wet, or windy it might be!

Date:

Astronomy

Mar. 13, 2013 Rise Set
Actual Time 6:54 AM CDT 6:48 PM CDT
Civil Twilight 6:29 AM CDT 7:12 PM CDT
Nautical Twilight 6:01 AM CDT 7:41 PM CDT
Astronomical Twilight 5:32 AM CDT 8:10 PM CDT
Moon 7:41 AM CDT (3/13) 8:53 PM CDT (3/13)
Length of Visible Light 12h 43m
Length of Day
11h 54m
Waxing Crescent, 4% of the Moon is Illuminated
Mar 13
Waxing Crescent
Mar 19
First Quarter
Mar 27
Full
Apr 2
Last Quarter
Apr 10
New

Hourly Weather History & Observations

Time (CDT) Temp. Windchill Dew Point Humidity Pressure Visibility Wind Dir Wind Speed Gust Speed Precip Events Conditions
1:15 AM 42.8 °F 39.3 °F 30.2 °F 61% 30.13 in 10.0 mi NNW 5.8 mph - N/A   Clear
1:35 AM 42.8 °F 39.3 °F 30.2 °F 61% 30.13 in 10.0 mi NNW 5.8 mph - N/A   Clear
1:55 AM 42.8 °F 39.3 °F 30.2 °F 61% 30.13 in 10.0 mi NNW 5.8 mph - N/A   Clear
2:15 AM 42.8 °F 38.6 °F 30.2 °F 61% 30.13 in 10.0 mi NNW 6.9 mph - N/A   Clear
2:35 AM 42.8 °F 38.6 °F 30.2 °F 61% 30.13 in 10.0 mi NNW 6.9 mph - N/A   Clear
2:55 AM 42.8 °F 39.3 °F 30.2 °F 61% 30.13 in 10.0 mi NNW 5.8 mph - N/A   Clear
3:15 AM 41.0 °F 36.4 °F 30.2 °F 65% 30.12 in 10.0 mi NNW 6.9 mph - N/A   Clear
3:36 AM 41.0 °F 38.0 °F 30.2 °F 65% 30.12 in 10.0 mi NNW 4.6 mph - N/A   Clear
3:55 AM 41.0 °F 38.0 °F 28.4 °F 61% 30.12 in 10.0 mi NNW 4.6 mph - N/A   Clear
4:15 AM 41.0 °F 37.1 °F 28.4 °F 61% 30.13 in 10.0 mi NNW 5.8 mph - N/A   Clear
4:35 AM 39.2 °F 35.9 °F 28.4 °F 65% 30.13 in 10.0 mi NNW 4.6 mph - N/A   Clear
4:55 AM 39.2 °F 35.9 °F 28.4 °F 65% 30.14 in 10.0 mi NNW 4.6 mph - N/A   Clear
5:15 AM 39.2 °F 35.9 °F 28.4 °F 65% 30.14 in 10.0 mi NNW 4.6 mph - N/A   Clear
5:35 AM 39.2 °F 37.0 °F 28.4 °F 65% 30.15 in 10.0 mi NNW 3.5 mph - N/A   Clear
5:55 AM 39.2 °F 37.0 °F 28.4 °F 65% 30.16 in 10.0 mi NNW 3.5 mph - N/A   Clear
6:15 AM 39.2 °F 37.0 °F 28.4 °F 65% 30.17 in 10.0 mi NNW 3.5 mph - N/A   Clear
6:35 AM 37.4 °F 33.8 °F 28.4 °F 70% 30.17 in 10.0 mi NNW 4.6 mph - N/A   Clear
6:55 AM 37.4 °F 33.8 °F 28.4 °F 70% 30.18 in 10.0 mi NW 4.6 mph - N/A   Clear
7:15 AM 37.4 °F 33.8 °F 28.4 °F 70% 30.18 in 10.0 mi NNW 4.6 mph - N/A   Clear
7:35 AM 37.4 °F 32.8 °F 30.2 °F 75% 30.19 in 10.0 mi NW 5.8 mph - N/A   Clear
7:55 AM 41.0 °F 38.0 °F 28.4 °F 61% 30.20 in 10.0 mi NW 4.6 mph - N/A   Clear
8:15 AM 42.8 °F 38.6 °F 28.4 °F 57% 30.20 in 10.0 mi NW 6.9 mph - N/A   Clear
8:35 AM 44.6 °F 40.7 °F 28.4 °F 53% 30.21 in 10.0 mi NW 6.9 mph - N/A   Clear
8:55 AM 46.4 °F 41.9 °F 28.4 °F 50% 30.22 in 10.0 mi NW 9.2 mph - N/A   Clear
9:55 AM 51.8 °F - 28.4 °F 41% 30.22 in 10.0 mi NNW 13.8 mph - N/A   Clear
10:15 AM 53.6 °F - 28.4 °F 38% 30.23 in 10.0 mi NW 16.1 mph 20.7 mph N/A   Clear
10:35 AM 53.6 °F - 26.6 °F 35% 30.23 in 10.0 mi NNW 15.0 mph 20.7 mph N/A   Clear
10:55 AM 53.6 °F - 26.6 °F 35% 30.23 in 10.0 mi NNW 16.1 mph - N/A   Clear
11:15 AM 55.4 °F - 28.4 °F 36% 30.23 in 10.0 mi NW 15.0 mph 20.7 mph N/A   Clear
11:35 AM 55.4 °F - 28.4 °F 36% 30.22 in 10.0 mi NW 9.2 mph 23.0 mph N/A   Clear
11:55 AM 55.4 °F - 24.8 °F 31% 30.22 in 10.0 mi WNW 18.4 mph 26.5 mph N/A   Clear
12:15 PM 55.4 °F - 21.2 °F 26% 30.22 in 10.0 mi WNW 18.4 mph 26.5 mph N/A   Clear
12:35 PM 55.4 °F - 21.2 °F 26% 30.22 in 10.0 mi NW 18.4 mph 28.8 mph N/A   Clear
12:55 PM 55.4 °F - 21.2 °F 26% 30.21 in 10.0 mi West 16.1 mph 21.9 mph N/A   Clear
1:15 PM 57.2 °F - 19.4 °F 23% 30.20 in 10.0 mi West 15.0 mph 24.2 mph N/A   Clear
1:35 PM 57.2 °F - 21.2 °F 25% 30.19 in 10.0 mi NW 18.4 mph 21.9 mph N/A   Clear
2:15 PM 57.2 °F - 19.4 °F 23% 30.17 in 10.0 mi NW 13.8 mph 23.0 mph N/A   Clear
2:35 PM 59.0 °F - 21.2 °F 23% 30.17 in 10.0 mi West 11.5 mph 19.6 mph N/A   Clear
2:55 PM 57.2 °F - 19.4 °F 23% 30.16 in 10.0 mi West 11.5 mph 19.6 mph N/A   Clear
3:15 PM 59.0 °F - 17.6 °F 20% 30.17 in 10.0 mi NW 17.3 mph 27.6 mph N/A   Clear
3:35 PM 59.0 °F - 19.4 °F 22% 30.17 in 10.0 mi WNW 17.3 mph 23.0 mph N/A   Clear
4:35 PM 57.2 °F - 19.4 °F 23% 30.17 in 10.0 mi West 17.3 mph 21.9 mph N/A   Clear
4:55 PM 57.2 °F - 19.4 °F 23% 30.18 in 10.0 mi NW 17.3 mph 29.9 mph N/A   Clear
5:15 PM 57.2 °F - 17.6 °F 21% 30.18 in 10.0 mi NNW 16.1 mph 23.0 mph N/A   Clear
5:35 PM 55.4 °F - 17.6 °F 23% 30.18 in 10.0 mi NW 21.9 mph 28.8 mph N/A   Clear
5:55 PM 55.4 °F - 17.6 °F 23% 30.19 in 10.0 mi WNW 15.0 mph 23.0 mph N/A   Clear
6:15 PM 55.4 °F - 19.4 °F 25% 30.19 in 10.0 mi NW 18.4 mph 23.0 mph N/A   Clear
6:35 PM 53.6 °F - 17.6 °F 24% 30.20 in 10.0 mi NW 20.7 mph 26.5 mph N/A   Clear
6:55 PM 51.8 °F - 17.6 °F 26% 30.20 in 10.0 mi NW 11.5 mph 20.7 mph N/A   Clear
7:15 PM 51.8 °F - 17.6 °F 26% 30.21 in 10.0 mi NW 10.4 mph 16.1 mph N/A   Clear
7:35 PM 50.0 °F - 17.6 °F 28% 30.21 in 10.0 mi NW 9.2 mph - N/A   Clear
7:55 PM 48.2 °F - 17.6 °F 30% 30.22 in 10.0 mi NW 8.1 mph - N/A   Clear
8:35 PM 48.2 °F - 17.6 °F 30% 30.22 in 10.0 mi NNW 9.2 mph - N/A   Clear
8:55 PM 46.4 °F 42.4 °F 19.4 °F 34% 30.23 in 10.0 mi North 8.1 mph - N/A   Clear
9:15 PM 46.4 °F 41.9 °F 17.6 °F 32% 30.24 in 10.0 mi NNW 9.2 mph - N/A   Clear
9:35 PM 46.4 °F 41.1 °F 17.6 °F 32% 30.24 in 10.0 mi NNW 11.5 mph - N/A   Clear
9:55 PM 44.6 °F 38.8 °F 17.6 °F 34% 30.25 in 10.0 mi NNW 11.5 mph - N/A   Clear
10:15 PM 44.6 °F 39.2 °F 17.6 °F 34% 30.25 in 10.0 mi NNW 10.4 mph - N/A   Clear
10:35 PM 44.6 °F 40.7 °F 19.4 °F 37% 30.26 in 10.0 mi NNW 6.9 mph - N/A   Clear
10:55 PM 42.8 °F 38.0 °F 19.4 °F 39% 30.26 in 10.0 mi NNW 8.1 mph - N/A   Clear
11:15 PM 42.8 °F 36.6 °F 19.4 °F 39% 30.26 in 10.0 mi NNW 11.5 mph - N/A   Clear
11:35 PM 42.8 °F 36.6 °F 19.4 °F 39% 30.27 in 10.0 mi NNW 11.5 mph - N/A   Clear
11:55 PM 42.8 °F 37.0 °F 19.4 °F 39% 30.28 in 10.0 mi NNW 10.4 mph - N/A   Clear